Time;durP1;ratioP1;P1;durP2;ratioP2;P2;SDS_P1;SDS_P2;PMS_P1;PMS_P2;Temp;Humidity;BMP_temperature;BMP_pressure;BME280_temperature;BME280_humidity;BME280_pressure;Samples;Min_cycle;Max_cycle;Signal;HPM_P1;HPM_P2
2021/12/14 00:00:48;;;;;;;;;;;0.00;84.80;;;;;;6041171;23;19973;-79
2021/12/14 00:03:17;;;;;;;;;;;0.00;84.30;;;;;;6041641;23;19926;-82
2021/12/14 00:05:44;;;;;;;;;;;0.00;84.00;;;;;;6039853;23;20343;-82
2021/12/14 00:08:13;;;;;;;;;;;0.00;84.10;;;;;;6040369;23;19934;-80
2021/12/14 00:10:50;;;;;;;;;;;0.00;84.10;;;;;;6040176;23;19935;-82
2021/12/14 00:14:09;;;;;;;;;;;0.00;84.10;;;;;;6038429;23;20423;-81
2021/12/14 00:16:14;;;;;;;;;;;0.00;83.80;;;;;;6037808;23;19922;-80
2021/12/14 00:18:41;;;;;;;;;;;-0.10;83.90;;;;;;6040652;23;19922;-80
2021/12/14 00:21:12;;;;;;;;;;;-0.10;83.90;;;;;;6040873;23;20411;-82
2021/12/14 00:26:25;;;;;;;;;;;-0.10;83.70;;;;;;6063043;23;19926;-79
2021/12/14 00:28:52;;;;;;;;;;;-0.10;83.70;;;;;;6066056;23;19969;-82
2021/12/14 00:31:20;;;;;;;;;;;-0.20;86.00;;;;;;6063366;23;19926;-81
2021/12/14 00:33:55;;;;;;;;;;;-0.20;86.30;;;;;;6064394;23;20375;-79
2021/12/14 00:36:22;;;;;;;;;;;-0.20;85.20;;;;;;6039802;23;20248;-82
2021/12/14 00:38:54;;;;;;;;;;;-0.20;86.00;;;;;;6061204;23;19922;-79
2021/12/14 00:41:22;;;;;;;;;;;-0.20;85.10;;;;;;6039835;23;19930;-82
2021/12/14 00:43:49;;;;;;;;;;;-0.20;85.40;;;;;;6039935;23;19977;-82
2021/12/14 00:46:17;;;;;;;;;;;-0.30;87.30;;;;;;6065835;23;19922;-82
2021/12/14 00:48:45;;;;;;;;;;;-0.40;87.60;;;;;;6064193;23;20437;-81
2021/12/14 00:51:13;;;;;;;;;;;-0.40;87.30;;;;;;6038337;23;19926;-80
2021/12/14 00:53:40;;;;;;;;;;;-0.40;86.60;;;;;;6040494;23;19929;-82
2021/12/14 00:56:09;;;;;;;;;;;-0.40;86.70;;;;;;6040901;23;20408;-82
2021/12/14 00:58:36;;;;;;;;;;;-0.40;86.50;;;;;;6058758;23;20259;-79
2021/12/14 01:01:23;;;;;;;;;;;-0.40;88.30;;;;;;6092797;23;20414;-80
2021/12/14 01:03:52;;;;;;;;;;;-0.40;87.20;;;;;;6069836;23;19956;-79
2021/12/14 01:06:20;;;;;;;;;;;-0.40;86.60;;;;;;6089882;23;19929;-79
2021/12/14 01:08:48;;;;;;;;;;;-0.40;86.20;;;;;;6074894;23;19946;-81
2021/12/14 01:11:20;;;;;;;;;;;-0.40;85.70;;;;;;6090968;23;19928;-80
2021/12/14 01:13:56;;;;;;;;;;;-0.40;85.50;;;;;;6093786;23;20343;-82
2021/12/14 01:16:36;;;;;;;;;;;-0.40;85.60;;;;;;6088576;23;20001;-81
2021/12/14 01:19:20;;;;;;;;;;;-0.40;87.30;;;;;;6093408;23;20418;-81
2021/12/14 01:27:09;;;;;;;;;;;-0.40;86.20;;;;;;6070901;23;19921;-82
2021/12/14 01:29:37;;;;;;;;;;;-0.40;87.30;;;;;;6072621;23;19921;-80
2021/12/14 01:32:04;;;;;;;;;;;-0.40;86.80;;;;;;6091407;23;19922;-81
2021/12/14 01:34:32;;;;;;;;;;;-0.50;86.50;;;;;;6094963;23;19922;-79
2021/12/14 01:37:02;;;;;;;;;;;-0.50;86.50;;;;;;6069933;23;19921;-79
2021/12/14 01:42:00;;;;;;;;;;;-0.60;87.60;;;;;;6072401;23;19922;-81
2021/12/14 01:44:28;;;;;;;;;;;-0.60;87.10;;;;;;6093326;23;19921;-80
2021/12/14 01:46:58;;;;;;;;;;;-0.60;86.70;;;;;;6093587;23;19930;-82
2021/12/14 01:49:26;;;;;;;;;;;-0.70;86.40;;;;;;6068570;23;19929;-80
2021/12/14 01:51:55;;;;;;;;;;;-0.70;86.20;;;;;;6097732;23;19925;-79
2021/12/14 01:54:24;;;;;;;;;;;-0.70;86.80;;;;;;6096655;23;19946;-82
2021/12/14 01:56:52;;;;;;;;;;;-0.70;86.90;;;;;;6095127;23;19925;-82
2021/12/14 01:59:27;;;;;;;;;;;-0.70;86.80;;;;;;6069634;23;20356;-79
2021/12/14 02:02:07;;;;;;;;;;;-0.70;86.70;;;;;;6066424;23;19946;-82
2021/12/14 02:04:38;;;;;;;;;;;-0.70;87.00;;;;;;6041180;23;19976;-82
2021/12/14 02:07:06;;;;;;;;;;;-0.80;87.40;;;;;;6039562;23;19969;-82
2021/12/14 02:09:34;;;;;;;;;;;-0.80;87.30;;;;;;6041461;23;20300;-82
2021/12/14 02:12:07;;;;;;;;;;;-0.80;87.80;;;;;;6042871;23;19922;-79
2021/12/14 02:14:34;;;;;;;;;;;-0.80;88.10;;;;;;6039293;23;19926;-82
2021/12/14 02:17:02;;;;;;;;;;;-0.80;88.20;;;;;;6043530;23;20347;-80
2021/12/14 02:19:30;;;;;;;;;;;-0.80;88.40;;;;;;6042801;23;19929;-80
2021/12/14 02:21:58;;;;;;;;;;;-0.80;88.20;;;;;;6041978;23;19959;-79
2021/12/14 02:24:26;;;;;;;;;;;-0.90;89.20;;;;;;6064974;23;19937;-82
2021/12/14 02:26:53;;;;;;;;;;;-0.80;89.20;;;;;;6066562;23;19926;-82
2021/12/14 02:29:28;;;;;;;;;;;-0.80;88.60;;;;;;6043090;23;20344;-80
2021/12/14 02:32:00;;;;;;;;;;;-0.80;88.40;;;;;;6064929;23;19933;-82
2021/12/14 02:34:27;;;;;;;;;;;-0.80;88.00;;;;;;6043827;23;20343;-82
2021/12/14 02:36:53;;;;;;;;;;;-0.90;87.90;;;;;;6065455;23;19950;-82
2021/12/14 02:42:09;;;;;;;;;;;-0.80;88.40;;;;;;6042713;23;19922;-80
2021/12/14 02:44:36;;;;;;;;;;;-0.80;88.70;;;;;;6039937;23;20309;-81
2021/12/14 02:47:06;;;;;;;;;;;-0.80;88.60;;;;;;6043337;23;19922;-81
2021/12/14 02:49:33;;;;;;;;;;;-0.80;88.90;;;;;;6041959;23;20009;-82
2021/12/14 02:52:03;;;;;;;;;;;-0.80;88.40;;;;;;6043524;23;20363;-82
2021/12/14 02:54:32;;;;;;;;;;;-0.80;88.20;;;;;;6038414;23;19922;-82
2021/12/14 02:57:01;;;;;;;;;;;-0.80;88.00;;;;;;6039594;23;19926;-79
2021/12/14 02:59:29;;;;;;;;;;;-0.80;87.80;;;;;;6038337;23;19922;-79
2021/12/14 03:01:58;;;;;;;;;;;-0.90;87.40;;;;;;6040326;23;19922;-80
2021/12/14 03:04:25;;;;;;;;;;;-0.90;87.40;;;;;;6038540;23;19926;-81
2021/12/14 03:06:54;;;;;;;;;;;-1.00;87.60;;;;;;6065367;23;19947;-81
2021/12/14 03:09:41;;;;;;;;;;;-1.00;88.30;;;;;;6039257;23;19922;-79
2021/12/14 03:12:11;;;;;;;;;;;-1.00;88.30;;;;;;6040364;23;19928;-80
2021/12/14 03:14:40;;;;;;;;;;;-1.10;87.60;;;;;;6041070;23;20374;-82
2021/12/14 03:17:07;;;;;;;;;;;-1.00;87.40;;;;;;6040166;23;19921;-81
2021/12/14 03:19:34;;;;;;;;;;;-1.10;87.90;;;;;;6039615;23;19930;-82
2021/12/14 03:22:17;;;;;;;;;;;-1.10;88.80;;;;;;6062389;23;19922;-82
2021/12/14 03:24:44;;;;;;;;;;;-1.10;90.30;;;;;;6062688;23;19981;-79
2021/12/14 03:27:11;;;;;;;;;;;-1.10;89.30;;;;;;6064845;23;19926;-82
2021/12/14 03:29:37;;;;;;;;;;;-1.10;88.40;;;;;;6062810;23;20348;-78
2021/12/14 03:32:04;;;;;;;;;;;-1.10;88.20;;;;;;6062773;23;19925;-80
2021/12/14 03:34:34;;;;;;;;;;;-1.00;88.80;;;;;;6036974;23;19973;-82
2021/12/14 03:37:04;;;;;;;;;;;-1.00;88.80;;;;;;6038037;23;19922;-79
2021/12/14 03:39:31;;;;;;;;;;;-1.00;89.50;;;;;;6039321;23;19925;-81
2021/12/14 03:42:00;;;;;;;;;;;-1.00;88.80;;;;;;6062801;23;19929;-82
2021/12/14 03:44:30;;;;;;;;;;;-1.10;88.20;;;;;;6040027;23;19929;-79
2021/12/14 03:47:01;;;;;;;;;;;-1.10;89.20;;;;;;6041454;23;20343;-78
2021/12/14 03:49:30;;;;;;;;;;;-1.10;88.80;;;;;;6039421;23;19922;-79
2021/12/14 03:51:58;;;;;;;;;;;-1.10;88.40;;;;;;6038915;23;20360;-80
2021/12/14 03:54:25;;;;;;;;;;;-1.10;88.60;;;;;;6039161;23;19950;-81
2021/12/14 03:56:52;;;;;;;;;;;-1.10;89.10;;;;;;6040384;23;19926;-80
2021/12/14 03:59:19;;;;;;;;;;;-1.10;88.60;;;;;;6065668;23;19930;-80
2021/12/14 04:01:47;;;;;;;;;;;-1.20;89.30;;;;;;6091011;23;20292;-80
2021/12/14 04:04:21;;;;;;;;;;;-1.20;88.50;;;;;;6090950;23;19981;-82
2021/12/14 04:06:51;;;;;;;;;;;-1.30;88.10;;;;;;6066903;23;19921;-81
2021/12/14 04:09:19;;;;;;;;;;;-1.30;88.30;;;;;;6090335;23;19926;-79
2021/12/14 04:11:46;;;;;;;;;;;-1.30;88.10;;;;;;6090571;23;19977;-81
2021/12/14 04:14:13;;;;;;;;;;;-1.30;87.70;;;;;;6091270;23;20355;-79
2021/12/14 04:16:41;;;;;;;;;;;-1.30;87.70;;;;;;6090735;23;19977;-81
2021/12/14 04:19:10;;;;;;;;;;;-1.40;89.10;;;;;;6091501;23;19922;-82
2021/12/14 04:21:38;;;;;;;;;;;-1.40;90.20;;;;;;6090656;23;20343;-81
2021/12/14 04:24:06;;;;;;;;;;;-1.50;90.30;;;;;;6090979;23;20308;-82
2021/12/14 04:26:33;;;;;;;;;;;-1.60;90.20;;;;;;6090104;23;19949;-81
2021/12/14 04:29:01;;;;;;;;;;;-1.60;89.90;;;;;;6090730;23;19925;-79
2021/12/14 04:31:32;;;;;;;;;;;-1.60;89.60;;;;;;6068298;23;19928;-82
2021/12/14 04:33:59;;;;;;;;;;;-1.50;90.20;;;;;;6068995;23;19933;-79
2021/12/14 04:36:27;;;;;;;;;;;-1.50;90.00;;;;;;6092060;23;19925;-80
2021/12/14 04:39:17;;;;;;;;;;;-1.50;89.90;;;;;;6092473;23;20251;-80
2021/12/14 04:53:02;;;;;;;;;;;-1.40;89.70;;;;;;6068165;23;19922;-82
2021/12/14 04:55:29;;;;;;;;;;;-1.50;89.30;;;;;;6095939;23;20370;-81
2021/12/14 04:57:56;;;;;;;;;;;-1.50;89.70;;;;;;6082378;23;19974;-81
2021/12/14 05:00:27;;;;;;;;;;;-1.50;89.40;;;;;;6063414;23;19922;-78
2021/12/14 05:02:56;;;;;;;;;;;-1.50;88.60;;;;;;6039829;23;19965;-82
2021/12/14 05:05:25;;;;;;;;;;;-1.60;88.80;;;;;;6039485;23;19990;-81
2021/12/14 05:10:40;;;;;;;;;;;-1.70;90.00;;;;;;6040485;23;20407;-81
2021/12/14 05:13:07;;;;;;;;;;;-1.70;90.10;;;;;;6039014;23;19922;-82
2021/12/14 05:15:39;;;;;;;;;;;-1.70;90.30;;;;;;6061972;23;19926;-81
2021/12/14 05:18:10;;;;;;;;;;;-1.70;90.20;;;;;;6038049;23;19926;-78
2021/12/14 05:20:40;;;;;;;;;;;-1.60;90.20;;;;;;6040972;23;19985;-79
2021/12/14 05:23:07;;;;;;;;;;;-1.60;90.00;;;;;;6039942;23;19922;-82
2021/12/14 05:25:34;;;;;;;;;;;-1.60;90.00;;;;;;6039825;23;20004;-81
2021/12/14 05:28:02;;;;;;;;;;;-1.60;89.70;;;;;;6039690;23;19929;-80
2021/12/14 05:30:36;;;;;;;;;;;-1.60;89.90;;;;;;6041002;23;20363;-80
2021/12/14 05:33:05;;;;;;;;;;;-1.60;90.00;;;;;;6062519;23;19930;-81
2021/12/14 05:35:32;;;;;;;;;;;-1.60;90.00;;;;;;6040243;23;19923;-82
2021/12/14 05:38:01;;;;;;;;;;;-1.60;90.10;;;;;;6042642;23;19926;-81
2021/12/14 05:43:07;;;;;;;;;;;-1.60;89.40;;;;;;6041491;23;19988;-82
2021/12/14 05:45:35;;;;;;;;;;;-1.60;89.10;;;;;;6041137;23;19932;-79
2021/12/14 05:48:02;;;;;;;;;;;-1.70;88.50;;;;;;6040705;23;20006;-81
2021/12/14 05:50:35;;;;;;;;;;;-1.80;89.80;;;;;;6042224;23;19921;-78
2021/12/14 05:53:02;;;;;;;;;;;-1.80;90.10;;;;;;6040773;23;19977;-80
2021/12/14 05:55:34;;;;;;;;;;;-1.80;89.90;;;;;;6041890;23;20304;-78
2021/12/14 05:58:02;;;;;;;;;;;-1.80;90.30;;;;;;6039011;23;19922;-81
2021/12/14 06:00:30;;;;;;;;;;;-1.90;90.00;;;;;;6062831;23;19926;-80
2021/12/14 06:02:57;;;;;;;;;;;-1.90;89.70;;;;;;6037982;23;20370;-80
2021/12/14 06:05:27;;;;;;;;;;;-1.90;89.40;;;;;;6038552;23;19925;-81
2021/12/14 06:07:54;;;;;;;;;;;-1.90;89.00;;;;;;6038677;23;20348;-81
2021/12/14 06:10:22;;;;;;;;;;;-1.90;88.90;;;;;;6039948;23;20347;-80
2021/12/14 06:12:49;;;;;;;;;;;-1.90;88.90;;;;;;6037592;23;19977;-79
2021/12/14 06:15:21;;;;;;;;;;;-1.90;88.40;;;;;;6038758;23;20344;-80
2021/12/14 06:17:49;;;;;;;;;;;-1.90;88.80;;;;;;6037702;23;20056;-80
2021/12/14 06:20:18;;;;;;;;;;;-1.90;89.60;;;;;;6038159;23;20304;-79
2021/12/14 06:22:46;;;;;;;;;;;-1.90;88.90;;;;;;6039027;23;19921;-79
2021/12/14 06:25:18;;;;;;;;;;;-1.90;88.60;;;;;;6062068;23;19930;-80
2021/12/14 06:27:46;;;;;;;;;;;-1.90;88.50;;;;;;6038338;23;19922;-81
2021/12/14 06:30:15;;;;;;;;;;;-1.90;88.50;;;;;;6037960;23;19921;-80
2021/12/14 06:32:44;;;;;;;;;;;-1.90;88.60;;;;;;6038262;23;19928;-80
2021/12/14 06:35:33;;;;;;;;;;;-1.90;88.60;;;;;;6037654;23;19922;-80
2021/12/14 06:38:22;;;;;;;;;;;-1.90;88.80;;;;;;6038441;23;19926;-79
2021/12/14 06:40:51;;;;;;;;;;;-1.90;88.60;;;;;;6061843;23;19926;-80
2021/12/14 06:43:24;;;;;;;;;;;-1.90;88.70;;;;;;6037730;23;20312;-80
2021/12/14 06:45:55;;;;;;;;;;;-1.90;89.10;;;;;;6036948;23;19922;-81
2021/12/14 06:48:34;;;;;;;;;;;-1.90;88.40;;;;;;6038429;23;19922;-81
2021/12/14 06:51:04;;;;;;;;;;;-2.00;90.20;;;;;;6037440;23;19978;-79
2021/12/14 06:53:31;;;;;;;;;;;-2.10;90.10;;;;;;6038834;23;19922;-80
2021/12/14 06:55:59;;;;;;;;;;;-2.10;89.80;;;;;;6038633;23;20352;-80
2021/12/14 06:58:32;;;;;;;;;;;-2.10;89.00;;;;;;6054143;23;20233;-80
2021/12/14 07:01:07;;;;;;;;;;;-2.10;89.40;;;;;;6089834;23;19973;-80
2021/12/14 07:03:45;;;;;;;;;;;-2.10;89.00;;;;;;6090754;23;19922;-80
2021/12/14 07:06:19;;;;;;;;;;;-2.20;88.50;;;;;;6089978;23;19926;-80
2021/12/14 07:08:46;;;;;;;;;;;-2.20;88.50;;;;;;6068246;23;19922;-80
2021/12/14 07:11:18;;;;;;;;;;;-2.20;88.40;;;;;;6090542;23;19976;-79
2021/12/14 07:13:46;;;;;;;;;;;-2.20;88.90;;;;;;6091176;23;19926;-79
2021/12/14 07:16:19;;;;;;;;;;;-2.20;88.60;;;;;;6066341;23;19925;-80
2021/12/14 07:18:54;;;;;;;;;;;-2.10;89.00;;;;;;6089959;23;20303;-80
2021/12/14 07:21:35;;;;;;;;;;;-2.10;89.50;;;;;;6068391;23;19921;-79
2021/12/14 07:24:27;;;;;;;;;;;-2.10;89.10;;;;;;6089772;23;19973;-79
2021/12/14 07:27:13;;;;;;;;;;;-2.10;89.40;;;;;;6090869;23;19926;-79
2021/12/14 07:29:39;;;;;;;;;;;-2.00;88.80;;;;;;6089755;23;19925;-80
2021/12/14 07:32:06;;;;;;;;;;;-2.00;89.30;;;;;;6090421;23;20259;-79
2021/12/14 07:34:33;;;;;;;;;;;-2.00;88.90;;;;;;6066082;23;19950;-80
2021/12/14 07:37:02;;;;;;;;;;;-1.90;89.40;;;;;;6090276;23;19921;-80
2021/12/14 07:39:29;;;;;;;;;;;-1.50;89.30;;;;;;6089534;23;20303;-80
2021/12/14 07:41:58;;;;;;;;;;;-0.60;88.70;;;;;;6069849;23;19926;-80
2021/12/14 07:44:32;;;;;;;;;;;0.30;86.50;;;;;;6089939;23;19922;-80
2021/12/14 07:47:07;;;;;;;;;;;1.10;82.20;;;;;;6068154;23;19928;-80
2021/12/14 07:49:40;;;;;;;;;;;1.60;79.40;;;;;;6066657;23;19925;-80
2021/12/14 07:52:11;;;;;;;;;;;2.10;75.80;;;;;;6090538;23;20414;-80
2021/12/14 07:54:40;;;;;;;;;;;2.30;73.30;;;;;;6089156;23;19921;-80
2021/12/14 07:57:09;;;;;;;;;;;2.30;72.70;;;;;;6090430;23;19922;-80
2021/12/14 07:59:35;;;;;;;;;;;2.20;72.90;;;;;;6066830;23;19925;-80
2021/12/14 08:02:17;;;;;;;;;;;1.90;74.30;;;;;;6090340;23;19922;-80
2021/12/14 08:04:47;;;;;;;;;;;1.80;75.00;;;;;;6066962;23;19927;-80
2021/12/14 08:07:52;;;;;;;;;;;1.60;76.20;;;;;;6067986;23;19925;-79
2021/12/14 08:10:25;;;;;;;;;;;1.60;76.70;;;;;;5929554;24;19927;-79
2021/12/14 08:13:04;;;;;;;;;;;1.50;78.50;;;;;;5929790;24;19923;-80
2021/12/14 08:15:35;;;;;;;;;;;1.60;79.10;;;;;;6035027;23;19984;-80
2021/12/14 08:18:02;;;;;;;;;;;1.60;80.20;;;;;;6090463;23;19921;-80
2021/12/14 08:20:29;;;;;;;;;;;1.70;80.20;;;;;;6089587;23;20340;-81
2021/12/14 08:22:57;;;;;;;;;;;1.80;80.10;;;;;;6091771;23;19930;-80
2021/12/14 08:25:26;;;;;;;;;;;1.90;79.90;;;;;;6068218;23;19929;-80
2021/12/14 08:28:00;;;;;;;;;;;2.10;79.80;;;;;;6090004;23;19922;-79
2021/12/14 08:30:28;;;;;;;;;;;2.30;79.50;;;;;;6090341;23;19929;-81
2021/12/14 08:32:55;;;;;;;;;;;2.30;80.50;;;;;;6090444;23;19972;-80
2021/12/14 08:35:23;;;;;;;;;;;2.40;79.70;;;;;;6090036;23;19977;-81
2021/12/14 08:37:56;;;;;;;;;;;2.60;79.80;;;;;;6091212;23;19926;-79
2021/12/14 08:40:23;;;;;;;;;;;2.70;79.60;;;;;;6090446;23;20340;-80
2021/12/14 08:43:09;;;;;;;;;;;2.70;80.00;;;;;;6091358;23;19941;-81
2021/12/14 08:45:44;;;;;;;;;;;2.90;79.40;;;;;;6090462;23;19985;-79
2021/12/14 08:48:14;;;;;;;;;;;3.00;79.40;;;;;;6092392;23;19922;-81
2021/12/14 08:50:44;;;;;;;;;;;3.10;79.40;;;;;;6066868;23;19925;-80
2021/12/14 08:53:12;;;;;;;;;;;3.20;78.90;;;;;;6090553;23;20344;-80
2021/12/14 08:55:43;;;;;;;;;;;3.30;78.90;;;;;;6089792;23;19977;-79
2021/12/14 08:58:14;;;;;;;;;;;3.40;78.70;;;;;;6079806;23;19925;-79
2021/12/14 09:00:45;;;;;;;;;;;3.60;78.20;;;;;;6095281;23;19922;-78
2021/12/14 09:03:14;;;;;;;;;;;3.70;78.20;;;;;;6096838;23;19945;-78
2021/12/14 09:05:47;;;;;;;;;;;3.80;78.60;;;;;;6095523;23;19925;-80
2021/12/14 09:08:14;;;;;;;;;;;3.90;78.20;;;;;;6095547;23;19940;-79
2021/12/14 09:10:42;;;;;;;;;;;4.10;77.90;;;;;;6094631;23;19921;-79
2021/12/14 09:13:11;;;;;;;;;;;4.20;77.00;;;;;;6097387;23;19953;-78
2021/12/14 09:15:42;;;;;;;;;;;4.30;76.80;;;;;;6094682;23;19929;-80
2021/12/14 09:18:09;;;;;;;;;;;4.50;77.40;;;;;;6094642;23;19996;-79
2021/12/14 09:20:56;;;;;;;;;;;4.60;76.80;;;;;;6072088;23;19921;-81
2021/12/14 09:23:25;;;;;;;;;;;4.70;77.30;;;;;;6071491;23;19921;-80
2021/12/14 09:25:53;;;;;;;;;;;4.90;77.30;;;;;;6096456;23;19992;-80
2021/12/14 09:28:20;;;;;;;;;;;5.00;76.20;;;;;;6094784;23;19929;-80
2021/12/14 09:30:56;;;;;;;;;;;5.10;75.70;;;;;;6096087;23;20108;-79
2021/12/14 09:33:24;;;;;;;;;;;5.10;76.50;;;;;;6094279;23;20258;-80
2021/12/14 09:35:54;;;;;;;;;;;5.20;77.00;;;;;;6072685;23;19921;-80
2021/12/14 09:38:30;;;;;;;;;;;5.20;77.40;;;;;;6094673;23;19925;-79
2021/12/14 09:40:59;;;;;;;;;;;5.30;77.50;;;;;;6071829;23;19949;-78
2021/12/14 09:43:29;;;;;;;;;;;5.30;77.20;;;;;;6094992;23;19925;-80
2021/12/14 09:45:57;;;;;;;;;;;5.30;78.40;;;;;;6094303;23;19922;-79
2021/12/14 09:48:41;;;;;;;;;;;5.40;78.40;;;;;;6094673;23;19925;-80
2021/12/14 09:51:10;;;;;;;;;;;5.40;78.20;;;;;;6095939;23;19944;-79
2021/12/14 09:53:44;;;;;;;;;;;5.50;78.00;;;;;;6094963;23;20327;-81
2021/12/14 09:56:14;;;;;;;;;;;5.70;78.10;;;;;;6073047;23;20236;-81
2021/12/14 09:58:58;;;;;;;;;;;5.80;78.00;;;;;;6071191;23;20333;-81
2021/12/14 10:01:34;;;;;;;;;;;5.90;77.70;;;;;;6038515;23;20256;-79
2021/12/14 10:04:06;;;;;;;;;;;6.10;77.50;;;;;;6038782;23;19996;-81
2021/12/14 10:06:33;;;;;;;;;;;6.20;76.30;;;;;;6036362;23;19922;-81
2021/12/14 10:09:04;;;;;;;;;;;6.40;75.80;;;;;;6041451;23;20304;-80
2021/12/14 10:12:03;;;;;;;;;;;6.50;75.00;;;;;;6039339;23;19922;-80
2021/12/14 10:14:33;;;;;;;;;;;6.60;74.40;;;;;;6039339;23;19925;-81
2021/12/14 10:16:59;;;;;;;;;;;6.60;73.00;;;;;;6040840;23;19926;-79
2021/12/14 10:19:28;;;;;;;;;;;6.80;73.00;;;;;;6044288;23;19922;-79
2021/12/14 10:21:58;;;;;;;;;;;6.90;71.60;;;;;;6044409;23;19925;-81
2021/12/14 10:24:26;;;;;;;;;;;7.10;71.40;;;;;;6040172;23;19941;-80
2021/12/14 10:26:55;;;;;;;;;;;7.20;71.20;;;;;;6047480;23;19921;-81
2021/12/14 10:29:25;;;;;;;;;;;7.40;70.10;;;;;;6038684;23;19922;-80
2021/12/14 10:31:58;;;;;;;;;;;7.50;68.90;;;;;;6040601;23;19926;-80
2021/12/14 10:34:26;;;;;;;;;;;7.70;68.50;;;;;;6039993;23;19928;-81
2021/12/14 10:37:06;;;;;;;;;;;7.80;68.40;;;;;;6045522;23;19973;-81
2021/12/14 10:44:51;;;;;;;;;;;8.10;67.70;;;;;;6043723;23;20522;-81
2021/12/14 10:47:19;;;;;;;;;;;8.20;67.90;;;;;;6041461;23;20412;-79
2021/12/14 10:49:47;;;;;;;;;;;8.40;66.30;;;;;;6042141;23;20400;-78
2021/12/14 10:52:17;;;;;;;;;;;8.60;67.40;;;;;;6065920;23;19954;-79
2021/12/14 10:54:48;;;;;;;;;;;8.70;66.00;;;;;;6043336;23;19930;-80
2021/12/14 10:57:18;;;;;;;;;;;8.70;66.80;;;;;;6041526;23;19970;-79
2021/12/14 10:59:49;;;;;;;;;;;8.90;66.80;;;;;;6099596;23;19945;-80
2021/12/14 11:02:20;;;;;;;;;;;9.00;66.10;;;;;;6104424;23;20000;-81
2021/12/14 11:04:54;;;;;;;;;;;9.10;66.30;;;;;;6094736;23;19933;-81
2021/12/14 11:07:43;;;;;;;;;;;9.30;65.10;;;;;;6101873;23;19925;-78
2021/12/14 11:10:10;;;;;;;;;;;9.40;65.10;;;;;;6096810;23;19925;-81
2021/12/14 11:12:38;;;;;;;;;;;9.60;63.00;;;;;;6074286;23;19925;-81
2021/12/14 11:15:19;;;;;;;;;;;9.80;61.70;;;;;;6098050;23;19921;-81
2021/12/14 11:20:36;;;;;;;;;;;10.10;61.20;;;;;;6101279;23;19925;-79
2021/12/14 11:23:09;;;;;;;;;;;10.20;61.60;;;;;;6098577;23;20266;-81
2021/12/14 11:25:38;;;;;;;;;;;10.40;60.60;;;;;;6102981;23;19921;-80
2021/12/14 11:28:10;;;;;;;;;;;10.60;60.00;;;;;;6104495;23;19945;-79
2021/12/14 11:30:38;;;;;;;;;;;10.60;58.20;;;;;;6104069;23;19922;-78
2021/12/14 11:33:08;;;;;;;;;;;10.70;58.90;;;;;;6100325;23;20335;-79
2021/12/14 11:35:40;;;;;;;;;;;10.90;57.70;;;;;;6075451;23;19949;-80
2021/12/14 11:38:12;;;;;;;;;;;11.00;57.40;;;;;;6102985;23;19929;-81
2021/12/14 11:40:39;;;;;;;;;;;11.20;56.90;;;;;;6081075;23;19926;-80
2021/12/14 11:43:10;;;;;;;;;;;11.40;56.70;;;;;;6099762;23;20340;-79
2021/12/14 11:45:37;;;;;;;;;;;11.70;56.20;;;;;;6101587;23;19946;-81
2021/12/14 11:48:04;;;;;;;;;;;11.80;54.90;;;;;;6104138;23;19981;-80
2021/12/14 11:50:35;;;;;;;;;;;12.00;55.10;;;;;;6096208;23;20365;-81
2021/12/14 11:53:13;;;;;;;;;;;12.10;54.90;;;;;;6095222;23;19925;-78
2021/12/14 11:55:40;;;;;;;;;;;12.30;53.60;;;;;;6072022;23;19973;-80
2021/12/14 11:58:09;;;;;;;;;;;12.30;54.60;;;;;;6078860;23;19921;-81
2021/12/14 12:00:39;;;;;;;;;;;12.30;53.90;;;;;;6076928;23;20366;-79
2021/12/14 12:03:21;;;;;;;;;;;12.10;53.10;;;;;;6100911;23;19921;-81
2021/12/14 12:06:05;;;;;;;;;;;12.20;54.20;;;;;;6071934;23;19921;-81
2021/12/14 12:11:19;;;;;;;;;;;12.40;54.50;;;;;;6077684;23;19985;-82
2021/12/14 12:13:46;;;;;;;;;;;12.50;53.70;;;;;;6101558;23;19928;-80
2021/12/14 12:16:17;;;;;;;;;;;12.60;52.90;;;;;;6075237;23;19929;-82
2021/12/14 12:19:02;;;;;;;;;;;12.70;53.90;;;;;;6097723;23;19996;-80
2021/12/14 12:21:29;;;;;;;;;;;12.80;53.30;;;;;;6071882;23;19929;-81
2021/12/14 12:23:56;;;;;;;;;;;12.90;53.20;;;;;;6095804;23;19925;-82
2021/12/14 12:26:28;;;;;;;;;;;13.10;52.00;;;;;;6098737;23;19928;-79
2021/12/14 12:29:01;;;;;;;;;;;13.10;52.50;;;;;;6098194;23;19972;-80
2021/12/14 12:31:29;;;;;;;;;;;13.30;51.80;;;;;;6094872;23;20283;-80
2021/12/14 12:33:57;;;;;;;;;;;13.40;51.70;;;;;;6101412;23;19921;-80
2021/12/14 12:36:35;;;;;;;;;;;13.40;51.50;;;;;;6097402;23;19928;-80
2021/12/14 12:39:02;;;;;;;;;;;13.50;51.60;;;;;;6072139;23;19926;-82
2021/12/14 12:41:32;;;;;;;;;;;13.60;51.70;;;;;;6098738;23;19992;-80
2021/12/14 12:43:59;;;;;;;;;;;13.50;52.10;;;;;;6075158;23;19925;-80
2021/12/14 12:46:38;;;;;;;;;;;13.50;51.80;;;;;;6070216;23;19929;-81
2021/12/14 12:49:11;;;;;;;;;;;13.50;51.70;;;;;;6100210;23;19921;-80
2021/12/14 12:51:41;;;;;;;;;;;13.60;51.80;;;;;;6074135;23;20342;-81
2021/12/14 12:54:16;;;;;;;;;;;13.60;51.20;;;;;;6098860;23;20343;-83
2021/12/14 12:56:45;;;;;;;;;;;13.60;51.00;;;;;;6098235;23;19972;-81
2021/12/14 12:59:12;;;;;;;;;;;13.50;50.50;;;;;;6069729;23;19982;-80
2021/12/14 13:01:40;;;;;;;;;;;13.60;50.80;;;;;;6043311;23;20340;-81
2021/12/14 13:04:07;;;;;;;;;;;13.60;51.10;;;;;;6042019;23;20344;-81
2021/12/14 13:06:34;;;;;;;;;;;13.60;51.40;;;;;;6038145;23;19933;-81
2021/12/14 13:09:03;;;;;;;;;;;13.70;51.50;;;;;;6041882;23;19926;-80
2021/12/14 13:11:35;;;;;;;;;;;13.80;50.30;;;;;;6043123;23;19974;-80
2021/12/14 13:14:04;;;;;;;;;;;13.90;50.00;;;;;;6038492;23;19930;-82
2021/12/14 13:16:32;;;;;;;;;;;14.00;50.70;;;;;;6037979;23;19921;-81
2021/12/14 13:19:11;;;;;;;;;;;14.10;50.40;;;;;;6037815;23;19926;-80
2021/12/14 13:21:45;;;;;;;;;;;14.10;50.50;;;;;;6038164;23;19926;-81
2021/12/14 13:24:15;;;;;;;;;;;14.10;49.70;;;;;;6041436;23;19930;-80
2021/12/14 13:26:54;;;;;;;;;;;14.10;49.80;;;;;;6036518;23;19922;-81
2021/12/14 13:29:26;;;;;;;;;;;14.10;50.00;;;;;;6043664;23;19986;-80
2021/12/14 13:31:56;;;;;;;;;;;13.90;49.90;;;;;;6039812;23;19922;-81
2021/12/14 13:34:40;;;;;;;;;;;13.70;50.10;;;;;;6043370;23;19922;-82
2021/12/14 13:37:08;;;;;;;;;;;13.50;50.40;;;;;;6043137;23;19930;-81
2021/12/14 13:39:36;;;;;;;;;;;13.20;51.40;;;;;;6069753;23;19922;-81
2021/12/14 13:42:02;;;;;;;;;;;13.10;52.00;;;;;;6042429;23;19926;-82
2021/12/14 13:44:30;;;;;;;;;;;13.10;52.50;;;;;;6043476;23;19978;-80
2021/12/14 13:47:00;;;;;;;;;;;13.10;52.40;;;;;;6043787;23;20264;-80
2021/12/14 13:49:27;;;;;;;;;;;13.10;52.70;;;;;;6042789;23;19929;-81
2021/12/14 13:51:55;;;;;;;;;;;13.10;53.90;;;;;;6042753;23;19933;-80
2021/12/14 13:54:23;;;;;;;;;;;13.20;52.60;;;;;;6043681;23;19922;-80
2021/12/14 13:56:50;;;;;;;;;;;13.20;52.50;;;;;;6043026;23;19930;-82
2021/12/14 13:59:19;;;;;;;;;;;13.20;52.60;;;;;;6040227;23;19976;-82
2021/12/14 14:01:46;;;;;;;;;;;13.10;52.50;;;;;;6064837;23;19930;-81
2021/12/14 14:04:18;;;;;;;;;;;13.10;52.20;;;;;;6062819;23;20006;-81
2021/12/14 14:06:45;;;;;;;;;;;13.10;51.80;;;;;;6039454;23;19926;-81
2021/12/14 14:09:11;;;;;;;;;;;13.10;51.70;;;;;;6039445;23;19929;-82
2021/12/14 14:11:50;;;;;;;;;;;13.10;52.20;;;;;;6064382;23;19922;-81
2021/12/14 14:14:17;;;;;;;;;;;13.10;53.30;;;;;;6067061;23;19926;-81
2021/12/14 14:16:50;;;;;;;;;;;13.10;52.20;;;;;;6062992;23;19930;-82
2021/12/14 14:19:30;;;;;;;;;;;13.00;52.20;;;;;;6029299;23;19926;-79
2021/12/14 14:21:58;;;;;;;;;;;13.00;52.40;;;;;;6063928;23;19990;-81
2021/12/14 14:24:30;;;;;;;;;;;13.00;52.40;;;;;;6039614;23;20039;-80
2021/12/14 14:26:58;;;;;;;;;;;12.90;52.60;;;;;;6042712;23;20017;-81
2021/12/14 14:29:38;;;;;;;;;;;12.90;52.50;;;;;;6042937;23;19926;-81
2021/12/14 14:32:11;;;;;;;;;;;12.90;52.10;;;;;;6065923;23;20006;-80
2021/12/14 14:34:53;;;;;;;;;;;12.90;52.20;;;;;;6041797;23;20395;-80
2021/12/14 14:37:35;;;;;;;;;;;12.90;52.30;;;;;;6042165;23;19925;-80
2021/12/14 14:40:10;;;;;;;;;;;12.80;51.80;;;;;;6043677;23;19950;-81
2021/12/14 14:42:38;;;;;;;;;;;12.70;51.80;;;;;;6047783;23;19922;-79
2021/12/14 14:45:14;;;;;;;;;;;12.60;52.90;;;;;;6045607;23;20339;-82
2021/12/14 14:47:41;;;;;;;;;;;12.40;51.90;;;;;;6044491;23;19922;-80
2021/12/14 14:50:20;;;;;;;;;;;12.30;51.80;;;;;;6042334;23;19969;-79
2021/12/14 14:52:56;;;;;;;;;;;12.30;51.80;;;;;;6048108;23;19922;-81
2021/12/14 14:55:47;;;;;;;;;;;12.30;51.20;;;;;;6038192;23;19942;-82
2021/12/14 14:58:13;;;;;;;;;;;12.30;50.00;;;;;;6058189;23;19981;-81
2021/12/14 15:00:40;;;;;;;;;;;12.30;49.80;;;;;;6098754;23;20347;-81
2021/12/14 15:03:16;;;;;;;;;;;12.20;50.60;;;;;;6095190;23;20363;-79
2021/12/14 15:05:46;;;;;;;;;;;12.10;50.70;;;;;;6095313;23;20370;-81
2021/12/14 15:08:24;;;;;;;;;;;12.10;50.90;;;;;;6070613;23;19926;-78
2021/12/14 15:11:06;;;;;;;;;;;12.00;51.10;;;;;;6092653;23;20343;-81
2021/12/14 15:13:44;;;;;;;;;;;11.90;51.30;;;;;;6067528;23;19926;-81
2021/12/14 15:16:17;;;;;;;;;;;11.90;51.60;;;;;;6090751;23;19921;-81
2021/12/14 15:18:51;;;;;;;;;;;11.80;51.50;;;;;;6091657;23;19977;-82
2021/12/14 15:21:32;;;;;;;;;;;11.80;51.50;;;;;;6090131;23;19981;-80
2021/12/14 15:24:19;;;;;;;;;;;11.60;51.80;;;;;;6072777;23;20299;-80